Terminal Aerodrome Forecast
Issued by NWS

Home | Current Version | Previous Version | Graphics & Text | Print | Product List | Glossary On
Versions: 1 2 3 4 5 6 7 8 9 10 11 12 13 14 15 16 17 18 19 20 21 22 23 24 25 26 27 28 29 30 31 32 33 34 35 36 37 38 39 40 41
644
FTUS43 KGRB 221139
TAFATW
TAF
KATW 221139Z 2212/2312 27009G16KT P6SM SCT015 BKN025
      TEMPO 2212/2213 BKN015
     FM221300 31012G20KT P6SM BKN015 BKN025
     FM221500 31016G24KT P6SM SCT040
     FM222300 30008KT P6SM SKC=

USA.gov is the U.S. government's official web portal to all federal, state and local government web resources and services.